createdAt,value
2022-12-15T08:11:03.124Z,476.00
2022-12-15T08:12:02.982Z,448.00
2022-12-15T08:13:02.972Z,500.00
2022-12-15T08:14:05.465Z,460.00
2022-12-15T08:15:02.979Z,464.00
2022-12-15T08:16:03.010Z,528.00
2022-12-15T08:17:03.029Z,496.00
2022-12-15T08:18:02.930Z,676.00
2022-12-15T08:19:02.909Z,560.00
2022-12-15T08:20:09.507Z,628.00
2022-12-15T08:21:03.886Z,560.00
2022-12-15T08:22:02.884Z,628.00
2022-12-15T08:23:02.879Z,544.00
2022-12-15T08:24:02.852Z,648.00
2022-12-15T08:25:02.856Z,608.00
2022-12-15T08:26:02.853Z,608.00
2022-12-15T08:27:02.841Z,596.00
2022-12-15T08:28:02.805Z,584.00
2022-12-15T08:29:17.797Z,600.00
2022-12-15T08:30:03.797Z,604.00
2022-12-15T08:31:02.797Z,696.00
2022-12-15T08:32:02.881Z,648.00
2022-12-15T08:33:02.772Z,732.00
2022-12-15T08:34:02.750Z,776.00
2022-12-15T08:35:02.736Z,748.00
2022-12-15T08:36:02.744Z,844.00
2022-12-15T08:37:02.719Z,776.00
2022-12-15T08:38:05.574Z,824.00
2022-12-15T08:39:02.705Z,952.00
2022-12-15T08:40:02.708Z,1044.00
2022-12-15T08:41:02.671Z,908.00
2022-12-15T08:42:02.729Z,896.00
2022-12-15T08:43:02.687Z,924.00
2022-12-15T08:44:02.631Z,1064.00
2022-12-15T08:45:02.624Z,996.00
2022-12-15T08:46:02.701Z,972.00
2022-12-15T08:47:02.632Z,1036.00
2022-12-15T08:48:02.586Z,896.00
2022-12-15T08:49:02.585Z,912.00
2022-12-15T08:50:02.579Z,964.00
2022-12-15T08:51:02.576Z,1020.00
2022-12-15T08:52:02.600Z,1152.00
2022-12-15T08:53:41.334Z,1072.00
2022-12-15T08:54:03.524Z,1108.00
2022-12-15T08:55:02.518Z,1072.00
2022-12-15T08:56:02.513Z,1184.00
2022-12-15T08:57:02.508Z,1212.00
2022-12-15T08:58:02.497Z,1096.00
2022-12-15T08:59:02.496Z,1252.00
2022-12-15T09:00:02.476Z,1344.00
2022-12-15T09:01:02.552Z,1432.00
2022-12-15T09:02:02.597Z,1164.00
2022-12-15T09:03:02.441Z,1204.00
2022-12-15T09:04:02.497Z,1308.00
2022-12-15T09:05:02.406Z,1320.00
2022-12-15T09:06:02.410Z,1428.00
2022-12-15T09:07:02.402Z,1320.00
2022-12-15T09:08:06.555Z,1240.00
2022-12-15T09:09:02.392Z,1316.00
2022-12-15T09:10:02.349Z,1204.00
2022-12-15T09:11:02.354Z,1216.00
2022-12-15T09:12:02.327Z,1216.00
2022-12-15T09:13:02.321Z,1180.00
2022-12-15T09:14:02.315Z,1188.00
2022-12-15T09:15:02.314Z,1444.00
2022-12-15T09:16:10.916Z,1520.00
2022-12-15T09:17:03.371Z,1536.00
2022-12-15T09:18:02.275Z,1540.00
2022-12-15T09:19:02.270Z,1508.00
2022-12-15T09:20:02.239Z,1484.00
2022-12-15T09:21:02.232Z,1316.00
2022-12-15T09:22:02.217Z,1308.00
2022-12-15T09:23:02.232Z,1336.00
2022-12-15T09:24:02.307Z,1388.00
2022-12-15T09:25:02.199Z,1256.00
2022-12-15T09:26:02.173Z,1464.00
2022-12-15T09:27:02.167Z,1408.00
2022-12-15T09:28:02.150Z,1388.00
2022-12-15T09:29:02.344Z,1348.00
2022-12-15T09:30:02.145Z,1172.00
2022-12-15T09:31:02.315Z,1124.00
2022-12-15T09:32:02.116Z,1224.00
2022-12-15T09:33:02.101Z,1276.00
2022-12-15T09:34:02.189Z,1172.00
2022-12-15T09:35:02.079Z,1144.00
2022-12-15T09:36:02.073Z,1112.00
2022-12-15T09:37:02.052Z,1128.00
2022-12-15T09:38:02.036Z,1132.00
2022-12-15T09:39:02.154Z,1144.00
2022-12-15T09:40:02.069Z,1192.00
2022-12-15T09:41:02.007Z,1228.00
2022-12-15T09:42:01.992Z,1196.00
2022-12-15T09:43:32.880Z,1296.00
2022-12-15T09:44:02.979Z,1360.00
2022-12-15T09:45:01.982Z,1284.00
2022-12-15T09:46:02.008Z,1316.00
2022-12-15T09:47:01.982Z,1396.00
2022-12-15T09:48:01.940Z,1428.00
2022-12-15T09:49:01.925Z,1404.00
2022-12-15T09:50:01.932Z,1692.00
2022-12-15T09:51:02.022Z,1848.00
2022-12-15T09:52:07.170Z,1592.00
2022-12-15T09:53:02.876Z,1856.00
2022-12-15T09:54:02.263Z,2024.00
2022-12-15T09:55:02.061Z,1900.00
2022-12-15T09:56:01.854Z,2152.00
2022-12-15T09:57:01.856Z,1960.00
2022-12-15T09:58:06.040Z,2412.00
2022-12-15T09:59:02.808Z,2668.00
2022-12-15T10:00:01.816Z,2416.00
2022-12-15T10:01:01.815Z,2104.00
2022-12-15T10:02:02.023Z,2160.00
2022-12-15T10:03:02.086Z,1808.00
2022-12-15T10:04:01.955Z,1808.00
2022-12-15T10:05:01.761Z,1868.00
2022-12-15T10:06:20.098Z,1812.00
2022-12-15T10:07:02.749Z,1792.00
2022-12-15T10:08:01.707Z,1928.00
2022-12-15T10:09:01.706Z,1868.00
2022-12-15T10:10:01.702Z,2040.00
2022-12-15T10:11:01.685Z,1960.00
2022-12-15T10:12:01.682Z,2056.00
2022-12-15T10:13:02.650Z,2100.00
2022-12-15T10:14:01.644Z,2136.00
2022-12-15T10:15:01.647Z,2232.00
2022-12-15T10:16:01.712Z,2236.00
2022-12-15T10:17:01.629Z,2104.00
2022-12-15T10:18:01.618Z,2160.00
2022-12-15T10:19:02.209Z,2456.00
2022-12-15T10:20:01.572Z,2484.00
2022-12-15T10:21:01.580Z,2800.00
2022-12-15T10:22:01.567Z,2760.00
2022-12-15T10:23:01.580Z,2940.00
2022-12-15T10:24:01.606Z,2728.00
2022-12-15T10:25:10.426Z,2908.00
2022-12-15T10:26:02.518Z,2996.00
2022-12-15T10:27:01.515Z,2796.00
2022-12-15T10:28:01.511Z,2768.00
2022-12-15T10:29:01.477Z,2896.00
2022-12-15T10:30:01.754Z,3344.00
2022-12-15T10:31:01.531Z,3152.00
2022-12-15T10:32:01.560Z,2756.00
2022-12-15T10:33:01.459Z,3012.00
2022-12-15T10:34:01.422Z,2928.00
2022-12-15T10:35:01.528Z,2856.00
2022-12-15T10:36:01.396Z,2864.00
2022-12-15T10:37:01.400Z,2636.00
2022-12-15T10:38:01.405Z,2988.00
2022-12-15T10:39:01.375Z,2668.00
2022-12-15T10:40:01.349Z,2600.00
2022-12-15T10:41:01.362Z,2820.00
2022-12-15T10:42:01.327Z,2716.00
2022-12-15T10:43:01.333Z,2500.00
2022-12-15T10:44:01.304Z,2772.00
2022-12-15T10:45:01.310Z,2580.00
2022-12-15T10:46:01.378Z,2468.00
2022-12-15T10:47:01.288Z,2640.00
2022-12-15T10:48:01.278Z,2768.00
2022-12-15T10:49:01.257Z,2700.00
2022-12-15T10:50:01.251Z,2108.00
2022-12-15T10:51:01.282Z,2600.00
2022-12-15T10:52:01.231Z,1972.00
2022-12-15T10:53:01.269Z,2008.00
2022-12-15T10:54:01.194Z,2300.00
2022-12-15T10:55:01.186Z,2268.00
2022-12-15T10:56:01.171Z,2428.00
2022-12-15T10:57:01.165Z,2388.00
2022-12-15T10:58:01.165Z,2344.00
2022-12-15T10:59:01.158Z,2292.00
2022-12-15T11:00:01.124Z,2488.00
2022-12-15T11:01:01.130Z,2308.00
2022-12-15T11:02:01.229Z,2384.00
2022-12-15T11:03:01.618Z,2260.00
2022-12-15T11:04:01.873Z,2228.00
2022-12-15T11:05:01.086Z,2156.00
2022-12-15T11:06:01.071Z,2312.00
2022-12-15T11:07:01.104Z,2324.00
2022-12-15T11:08:01.052Z,2184.00
2022-12-15T11:09:01.025Z,2088.00
2022-12-15T11:10:01.055Z,2296.00
2022-12-15T11:11:01.187Z,2148.00
2022-12-15T11:12:00.987Z,2056.00
2022-12-15T11:13:00.984Z,1956.00
2022-12-15T11:14:00.964Z,1856.00
2022-12-15T11:15:00.976Z,1912.00
2022-12-15T11:16:00.956Z,1888.00
2022-12-15T11:17:00.937Z,2056.00
2022-12-15T11:18:00.949Z,2092.00
2022-12-15T11:19:00.929Z,2112.00
2022-12-15T11:20:02.944Z,2032.00
2022-12-15T11:21:00.898Z,2176.00
2022-12-15T11:22:00.896Z,2284.00
2022-12-15T11:23:00.903Z,2260.00
2022-12-15T11:24:00.881Z,2196.00
2022-12-15T11:25:00.857Z,2384.00
2022-12-15T11:26:06.757Z,2688.00
2022-12-15T11:27:01.826Z,2964.00
2022-12-15T11:28:00.826Z,3588.00
2022-12-15T11:29:00.809Z,3156.00
2022-12-15T11:30:00.812Z,2960.00
2022-12-15T11:31:00.776Z,2268.00
2022-12-15T11:33:01.775Z,2976.00
2022-12-15T11:34:00.769Z,3292.00
2022-12-15T11:35:00.744Z,3344.00
2022-12-15T11:36:00.752Z,2600.00
2022-12-15T11:37:00.723Z,2768.00
2022-12-15T11:38:00.706Z,3092.00
2022-12-15T11:39:00.880Z,3256.00
2022-12-15T11:40:00.704Z,3572.00
2022-12-15T11:41:00.690Z,3772.00
2022-12-15T11:42:00.655Z,3420.00
2022-12-15T11:43:00.685Z,3404.00
2022-12-15T11:44:04.276Z,3704.00
2022-12-15T11:45:01.730Z,4312.00
2022-12-15T11:46:00.633Z,3772.00
2022-12-15T11:47:00.596Z,3996.00
2022-12-15T11:48:00.609Z,3572.00
2022-12-15T11:49:00.572Z,4480.00
2022-12-15T11:50:00.598Z,4460.00
2022-12-15T11:51:00.562Z,6232.00
2022-12-15T11:52:00.546Z,3912.00
2022-12-15T11:53:00.566Z,4928.00
2022-12-15T11:54:00.555Z,5464.00
2022-12-15T11:55:00.552Z,5836.00
2022-12-15T11:56:00.495Z,5644.00
2022-12-15T11:57:00.496Z,5832.00
2022-12-15T11:58:00.491Z,5280.00
2022-12-15T11:59:00.474Z,5148.00
2022-12-15T12:00:00.521Z,4144.00
2022-12-15T12:01:00.465Z,5648.00
2022-12-15T12:02:03.284Z,5732.00
2022-12-15T12:03:00.481Z,5916.00
2022-12-15T12:04:00.407Z,5400.00
2022-12-15T12:05:00.420Z,4228.00
2022-12-15T12:06:00.417Z,5400.00
2022-12-15T12:07:00.428Z,5964.00
2022-12-15T12:08:00.375Z,5424.00
2022-12-15T12:09:00.359Z,5156.00
2022-12-15T12:10:00.368Z,4812.00
2022-12-15T12:11:00.418Z,4336.00
2022-12-15T12:12:00.332Z,4644.00
2022-12-15T12:13:00.305Z,4748.00
2022-12-15T12:14:00.298Z,5572.00
2022-12-15T12:15:00.309Z,4320.00
2022-12-15T12:16:00.299Z,5552.00
2022-12-15T12:17:00.257Z,5532.00
2022-12-15T12:18:00.264Z,5540.00
2022-12-15T12:19:00.464Z,5684.00
2022-12-15T12:20:00.280Z,5604.00
2022-12-15T12:21:00.220Z,4868.00
2022-12-15T12:22:00.207Z,4092.00
2022-12-15T12:23:00.201Z,4824.00
2022-12-15T12:24:00.219Z,4848.00
2022-12-15T12:25:00.215Z,4404.00
2022-12-15T12:26:03.155Z,4992.00
2022-12-15T12:27:00.178Z,4528.00
2022-12-15T12:28:00.136Z,5236.00
2022-12-15T12:29:00.135Z,4356.00
2022-12-15T12:30:00.129Z,3180.00
2022-12-15T12:31:00.147Z,3608.00
2022-12-15T12:32:04.433Z,4264.00
2022-12-15T12:33:00.136Z,3852.00
2022-12-15T12:34:00.138Z,4044.00
2022-12-15T12:36:01.090Z,4740.00
2022-12-15T12:37:00.116Z,4532.00
2022-12-15T12:38:03.216Z,4396.00
2022-12-15T12:39:00.115Z,4716.00
2022-12-15T12:40:00.075Z,4756.00
2022-12-15T12:41:00.102Z,4728.00
2022-12-15T12:42:00.013Z,4372.00
2022-12-15T12:43:00.083Z,4080.00
2022-12-15T12:44:00.007Z,4248.00
2022-12-15T12:44:59.990Z,4196.00
2022-12-15T12:45:59.976Z,4144.00
2022-12-15T12:47:00.023Z,4156.00
2022-12-15T12:47:59.944Z,4164.00
2022-12-15T12:48:59.940Z,4080.00
2022-12-15T12:49:59.949Z,3976.00
2022-12-15T12:50:59.932Z,4176.00
2022-12-15T12:51:59.962Z,4196.00
2022-12-15T12:52:59.907Z,4088.00
2022-12-15T12:53:59.889Z,4072.00
2022-12-15T12:54:59.866Z,4140.00
2022-12-15T12:55:59.858Z,4420.00
2022-12-15T12:56:59.879Z,4492.00
2022-12-15T12:57:59.883Z,4400.00
2022-12-15T12:58:59.907Z,4308.00
2022-12-15T12:59:59.813Z,4260.00
2022-12-15T13:00:59.920Z,4232.00
2022-12-15T13:02:00.010Z,3892.00
2022-12-15T13:02:59.917Z,3904.00
2022-12-15T13:03:59.741Z,3940.00
2022-12-15T13:04:59.766Z,3448.00
2022-12-15T13:05:59.774Z,3468.00
2022-12-15T13:06:59.737Z,3120.00
2022-12-15T13:07:59.786Z,3708.00
2022-12-15T13:08:59.707Z,3520.00
2022-12-15T13:09:59.689Z,2480.00
2022-12-15T13:10:59.672Z,3724.00
2022-12-15T13:12:01.083Z,2980.00
2022-12-15T13:12:59.650Z,2688.00
2022-12-15T13:13:59.713Z,2544.00
2022-12-15T13:14:59.647Z,2920.00
2022-12-15T13:15:59.623Z,3200.00
2022-12-15T13:17:25.334Z,3404.00
2022-12-15T13:18:00.661Z,3480.00
2022-12-15T13:18:59.601Z,3148.00
2022-12-15T13:19:59.566Z,3180.00
2022-12-15T13:20:59.574Z,3060.00
2022-12-15T13:21:59.557Z,3128.00
2022-12-15T13:22:59.545Z,3212.00
2022-12-15T13:23:59.545Z,3328.00
2022-12-15T13:24:59.543Z,3284.00
2022-12-15T13:25:59.518Z,3276.00
2022-12-15T13:26:59.489Z,3108.00
2022-12-15T13:27:59.510Z,3156.00
2022-12-15T13:28:59.473Z,3000.00
2022-12-15T13:29:59.516Z,2936.00
2022-12-15T13:31:04.579Z,2248.00
2022-12-15T13:32:00.537Z,1884.00
2022-12-15T13:32:59.467Z,1972.00
2022-12-15T13:33:59.426Z,2776.00
2022-12-15T13:35:00.249Z,3020.00
2022-12-15T13:35:59.396Z,2972.00
2022-12-15T13:36:59.401Z,2856.00
2022-12-15T13:37:59.396Z,2704.00
2022-12-15T13:38:59.407Z,2580.00
2022-12-15T13:39:59.362Z,2416.00
2022-12-15T13:40:59.385Z,2044.00
2022-12-15T13:43:00.291Z,2032.00
2022-12-15T13:43:59.295Z,2328.00
2022-12-15T13:44:59.285Z,2360.00
2022-12-15T13:45:59.368Z,2420.00
2022-12-15T13:46:59.273Z,2236.00
2022-12-15T13:47:59.237Z,2248.00
2022-12-15T13:48:59.331Z,2184.00
2022-12-15T13:50:01.711Z,2176.00
2022-12-15T13:50:59.233Z,1780.00
2022-12-15T13:51:59.205Z,1976.00
2022-12-15T13:53:18.300Z,1524.00
2022-12-15T13:54:00.189Z,1452.00
2022-12-15T13:54:59.160Z,1464.00
2022-12-15T13:55:59.194Z,1528.00
2022-12-15T13:56:59.151Z,1584.00
2022-12-15T13:57:59.143Z,1540.00
2022-12-15T13:58:59.112Z,1512.00
2022-12-15T13:59:59.128Z,1440.00
2022-12-15T14:00:59.212Z,1388.00
2022-12-15T14:01:59.183Z,1164.00
2022-12-15T14:02:59.225Z,1300.00
2022-12-15T14:03:59.069Z,1368.00
2022-12-15T14:04:59.041Z,1328.00
2022-12-15T14:05:59.198Z,1316.00
2022-12-15T14:06:59.035Z,1284.00
2022-12-15T14:07:59.012Z,1248.00
2022-12-15T14:08:59.004Z,1192.00
2022-12-15T14:09:59.020Z,1136.00
2022-12-15T14:10:58.974Z,1092.00
2022-12-15T14:11:59.123Z,1068.00
2022-12-15T14:12:59.081Z,1012.00
2022-12-15T14:13:58.944Z,980.00
2022-12-15T14:14:58.928Z,948.00
2022-12-15T14:15:58.924Z,924.00
2022-12-15T14:16:59.120Z,852.00
2022-12-15T14:17:58.911Z,816.00
2022-12-15T14:18:58.995Z,772.00
2022-12-15T14:19:58.890Z,728.00
2022-12-15T14:20:58.876Z,740.00
2022-12-15T14:21:58.939Z,764.00
2022-12-15T14:22:58.876Z,760.00
2022-12-15T14:24:37.401Z,736.00
2022-12-15T14:24:59.838Z,724.00
2022-12-15T14:25:58.845Z,716.00
2022-12-15T14:26:58.795Z,704.00
2022-12-15T14:27:58.860Z,692.00
2022-12-15T14:28:58.774Z,684.00
2022-12-15T14:30:00.812Z,672.00
2022-12-15T14:30:58.784Z,660.00
2022-12-15T14:31:58.801Z,656.00
2022-12-15T14:32:58.751Z,640.00
2022-12-15T14:33:58.732Z,628.00
2022-12-15T14:34:58.758Z,620.00
2022-12-15T14:35:58.721Z,604.00
2022-12-15T14:36:58.697Z,596.00
2022-12-15T14:37:58.739Z,584.00
2022-12-15T14:38:58.669Z,572.00
2022-12-15T14:39:58.679Z,560.00
2022-12-15T14:40:58.663Z,552.00
2022-12-15T14:41:58.637Z,540.00
2022-12-15T14:42:59.084Z,528.00
2022-12-15T14:44:31.739Z,520.00
2022-12-15T14:44:59.607Z,504.00
2022-12-15T14:45:58.635Z,496.00
2022-12-15T14:46:58.569Z,484.00
2022-12-15T14:48:40.025Z,472.00
2022-12-15T14:49:00.121Z,460.00
2022-12-15T14:49:58.544Z,456.00
2022-12-15T14:50:58.568Z,444.00
2022-12-15T14:51:58.535Z,432.00
2022-12-15T14:52:58.554Z,420.00
2022-12-15T14:53:58.617Z,408.00
2022-12-15T14:54:58.506Z,396.00
2022-12-15T14:55:58.523Z,384.00
2022-12-15T14:56:58.511Z,372.00
2022-12-15T14:57:58.497Z,364.00
2022-12-15T14:58:58.527Z,352.00
2022-12-15T14:59:58.485Z,340.00
2022-12-15T15:00:58.498Z,328.00
2022-12-15T15:01:59.353Z,316.00
2022-12-15T15:02:58.536Z,304.00
2022-12-15T15:03:09.546Z,2620.00
2022-12-15T15:03:12.825Z,4004.00
2022-12-15T15:03:58.415Z,296.00
2022-12-15T15:04:58.370Z,280.00
2022-12-15T15:05:58.453Z,272.00
2022-12-15T15:06:58.379Z,260.00
2022-12-15T15:07:58.352Z,248.00
2022-12-15T15:08:58.342Z,240.00
2022-12-15T15:09:58.331Z,228.00
2022-12-15T15:10:58.307Z,220.00
2022-12-15T15:11:58.617Z,208.00
2022-12-15T15:12:58.292Z,196.00
2022-12-15T15:13:58.299Z,188.00
2022-12-15T15:14:58.299Z,176.00
2022-12-15T15:15:58.269Z,168.00
2022-12-15T15:16:58.327Z,160.00
2022-12-15T15:17:58.251Z,148.00
2022-12-15T15:18:58.222Z,140.00
2022-12-15T15:19:58.226Z,132.00
2022-12-15T15:20:58.203Z,124.00
2022-12-15T15:21:58.182Z,116.00
2022-12-15T15:22:58.256Z,108.00
2022-12-15T15:23:58.161Z,100.00
2022-12-15T15:24:58.195Z,92.00
2022-12-15T15:25:58.153Z,84.00
2022-12-15T15:26:58.216Z,80.00
2022-12-15T15:27:58.132Z,72.00
2022-12-15T15:28:58.102Z,68.00
2022-12-15T15:29:58.109Z,60.00
2022-12-15T15:30:58.213Z,56.00
2022-12-15T15:31:58.072Z,52.00
2022-12-15T15:32:58.058Z,44.00
2022-12-15T15:33:58.065Z,40.00
2022-12-15T15:34:58.052Z,36.00
2022-12-15T15:35:58.041Z,32.00
2022-12-15T15:36:58.028Z,28.00
2022-12-15T15:37:58.008Z,24.00
2022-12-15T15:38:58.025Z,24.00
2022-12-15T15:39:57.979Z,20.00
2022-12-15T15:40:58.034Z,20.00
2022-12-15T15:41:57.971Z,16.00
2022-12-15T15:42:57.961Z,12.00
2022-12-15T15:43:57.947Z,12.00
2022-12-15T15:44:57.950Z,12.00
2022-12-15T15:45:58.005Z,8.00
2022-12-15T15:46:57.916Z,8.00
2022-12-15T15:47:57.894Z,4.00
2022-12-15T15:48:57.901Z,8.00
2022-12-15T15:49:57.897Z,4.00
2022-12-15T15:50:57.860Z,4.00
2022-12-15T15:51:57.867Z,4.00
2022-12-15T15:52:57.837Z,4.00
2022-12-15T15:53:57.822Z,0.00
2022-12-15T15:54:57.832Z,0.00
2022-12-15T15:55:57.811Z,4.00
2022-12-15T15:56:57.827Z,4.00
2022-12-15T15:57:57.787Z,0.00
2022-12-15T15:58:57.770Z,0.00
2022-12-15T15:59:57.765Z,0.00
2022-12-15T16:00:57.796Z,0.00
2022-12-15T16:01:57.917Z,0.00
2022-12-15T16:02:57.944Z,0.00
2022-12-15T16:03:57.802Z,0.00
2022-12-15T16:04:57.707Z,0.00
2022-12-15T16:05:57.690Z,0.00
2022-12-15T16:06:57.703Z,0.00
2022-12-15T16:07:57.690Z,0.00
2022-12-15T16:08:57.669Z,0.00
2022-12-15T16:09:58.220Z,0.00
2022-12-15T16:10:57.657Z,0.00
2022-12-15T16:11:57.629Z,0.00
2022-12-15T16:12:57.625Z,0.00
2022-12-15T16:13:57.607Z,0.00
2022-12-15T16:14:57.602Z,0.00
2022-12-15T16:15:57.628Z,0.00
2022-12-15T16:16:57.564Z,0.00
2022-12-15T16:17:57.573Z,0.00
2022-12-15T16:18:57.543Z,0.00
2022-12-15T16:19:57.530Z,0.00
2022-12-15T16:20:57.536Z,0.00
2022-12-15T16:21:57.509Z,0.00
2022-12-15T16:22:57.496Z,0.00
2022-12-15T16:23:57.531Z,0.00
2022-12-15T16:24:57.488Z,0.00
2022-12-15T16:25:57.458Z,0.00
2022-12-15T16:26:57.552Z,0.00
2022-12-15T16:27:57.452Z,0.00
2022-12-15T16:28:57.468Z,0.00
2022-12-15T16:29:57.415Z,0.00
2022-12-15T16:30:57.459Z,0.00
2022-12-15T16:31:57.452Z,0.00
2022-12-15T16:32:57.407Z,0.00
2022-12-15T16:33:57.377Z,0.00
2022-12-15T16:34:57.394Z,0.00
2022-12-15T16:35:57.349Z,0.00
2022-12-15T16:36:57.355Z,0.00
2022-12-15T16:37:57.339Z,0.00
2022-12-15T16:38:57.331Z,0.00
2022-12-15T16:39:57.333Z,0.00
2022-12-15T16:40:57.312Z,0.00
2022-12-15T16:41:57.421Z,0.00
2022-12-15T16:42:57.314Z,0.00
2022-12-15T16:43:57.257Z,0.00
2022-12-15T16:44:57.268Z,0.00
2022-12-15T16:45:57.369Z,0.00
2022-12-15T16:46:57.622Z,0.00
2022-12-15T16:47:57.241Z,0.00
2022-12-15T16:48:57.279Z,0.00
2022-12-15T16:49:57.222Z,0.00
2022-12-15T16:50:57.198Z,0.00
2022-12-15T16:51:57.266Z,0.00
2022-12-15T16:52:57.173Z,0.00
2022-12-15T16:53:57.149Z,0.00
2022-12-15T16:54:57.137Z,0.00
2022-12-15T16:55:57.161Z,0.00
2022-12-15T16:56:57.123Z,0.00
2022-12-15T16:57:57.116Z,0.00
2022-12-15T16:59:15.496Z,0.00
2022-12-15T16:59:58.093Z,0.00
2022-12-15T17:00:57.084Z,0.00
2022-12-15T17:01:57.198Z,0.00
2022-12-15T17:02:57.289Z,0.00
2022-12-15T17:03:57.088Z,0.00
2022-12-15T17:04:57.037Z,0.00
2022-12-15T17:05:57.010Z,0.00
2022-12-15T17:06:57.019Z,0.00
2022-12-15T17:07:57.024Z,0.00
2022-12-15T17:08:56.993Z,0.00
2022-12-15T17:09:56.965Z,0.00
2022-12-15T17:10:56.972Z,0.00
2022-12-15T17:11:56.969Z,0.00
2022-12-15T17:12:56.940Z,0.00
2022-12-15T17:13:56.930Z,0.00
2022-12-15T17:14:56.934Z,0.00
2022-12-15T17:15:56.934Z,0.00
2022-12-15T17:16:56.920Z,0.00
2022-12-15T17:17:56.890Z,0.00
2022-12-15T17:18:56.871Z,0.00
2022-12-15T17:20:57.858Z,0.00
2022-12-15T17:21:56.859Z,0.00
2022-12-15T17:22:56.886Z,0.00
2022-12-15T17:23:56.819Z,0.00
2022-12-15T17:24:56.850Z,0.00
2022-12-15T17:26:57.816Z,0.00
2022-12-15T17:27:56.793Z,0.00
2022-12-15T17:28:56.772Z,0.00
2022-12-15T17:29:56.788Z,0.00
2022-12-15T17:30:56.866Z,0.00
2022-12-15T17:31:56.811Z,0.00
2022-12-15T17:32:56.722Z,0.00
2022-12-15T17:33:56.716Z,0.00
2022-12-15T17:34:56.748Z,0.00
2022-12-15T17:35:56.774Z,0.00
2022-12-15T17:36:56.770Z,0.00
2022-12-15T17:37:56.690Z,0.00
2022-12-15T17:38:56.707Z,0.00
2022-12-15T17:39:56.670Z,0.00
2022-12-15T17:40:56.648Z,0.00
2022-12-15T17:42:01.415Z,0.00
2022-12-15T17:42:57.677Z,0.00
2022-12-15T17:44:31.097Z,0.00
2022-12-15T17:44:57.625Z,0.00
2022-12-15T17:45:56.573Z,0.00
2022-12-15T17:46:56.696Z,0.00
2022-12-15T17:47:56.565Z,0.00
2022-12-15T17:48:56.542Z,0.00
2022-12-15T17:49:56.513Z,0.00
2022-12-15T17:50:56.517Z,0.00
2022-12-15T17:51:56.491Z,0.00
2022-12-15T17:52:56.513Z,0.00
2022-12-15T17:53:56.470Z,0.00
2022-12-15T17:54:56.521Z,0.00
2022-12-15T17:55:56.448Z,0.00
2022-12-15T17:56:56.453Z,0.00
2022-12-15T17:57:56.437Z,0.00
2022-12-15T17:58:56.416Z,0.00
2022-12-15T17:59:56.419Z,0.00
2022-12-15T18:00:56.527Z,0.00
2022-12-15T18:01:56.573Z,0.00
2022-12-15T18:02:56.684Z,0.00
2022-12-15T18:03:56.399Z,0.00
2022-12-15T18:04:56.349Z,0.00
2022-12-15T18:05:56.350Z,0.00
2022-12-15T18:07:01.548Z,0.00
2022-12-15T18:07:57.346Z,0.00
2022-12-15T18:08:56.319Z,0.00
2022-12-15T18:09:56.301Z,0.00
2022-12-15T18:10:56.295Z,0.00
2022-12-15T18:11:56.283Z,0.00
2022-12-15T18:12:56.272Z,0.00
2022-12-15T18:13:56.258Z,0.00
2022-12-15T18:14:56.244Z,0.00
2022-12-15T18:15:56.289Z,0.00
2022-12-15T18:16:56.234Z,0.00
2022-12-15T18:17:56.214Z,0.00
2022-12-15T18:18:56.244Z,0.00
2022-12-15T18:19:56.189Z,0.00
2022-12-15T18:20:56.181Z,0.00
2022-12-15T18:21:56.167Z,0.00
2022-12-15T18:22:56.160Z,0.00
2022-12-15T18:23:56.165Z,0.00
2022-12-15T18:24:56.135Z,0.00
2022-12-15T18:26:01.154Z,0.00
2022-12-15T18:26:57.136Z,0.00
2022-12-15T18:27:56.086Z,0.00
2022-12-15T18:28:56.100Z,0.00
2022-12-15T18:29:56.085Z,0.00
2022-12-15T18:30:56.063Z,0.00
2022-12-15T18:31:56.087Z,0.00
2022-12-15T18:32:56.053Z,0.00
2022-12-15T18:34:00.980Z,0.00
2022-12-15T18:34:57.050Z,0.00
2022-12-15T18:35:56.009Z,0.00
2022-12-15T18:36:56.001Z,0.00
2022-12-15T18:37:55.977Z,0.00
2022-12-15T18:38:55.982Z,0.00
2022-12-15T18:39:59.510Z,0.00
2022-12-15T18:40:56.962Z,0.00
2022-12-15T18:41:55.942Z,0.00
2022-12-15T18:42:55.937Z,0.00
2022-12-15T18:43:55.943Z,0.00
2022-12-15T18:44:55.897Z,0.00
2022-12-15T18:45:55.901Z,0.00
2022-12-15T18:46:55.949Z,0.00
2022-12-15T18:47:55.886Z,0.00
2022-12-15T18:48:55.868Z,0.00
2022-12-15T18:49:55.840Z,0.00
2022-12-15T18:50:55.910Z,0.00
2022-12-15T18:51:55.818Z,0.00
2022-12-15T18:52:55.824Z,0.00
2022-12-15T18:53:55.806Z,0.00
2022-12-15T18:54:55.785Z,0.00
2022-12-15T18:55:55.794Z,0.00
2022-12-15T18:56:55.806Z,0.00
2022-12-15T18:57:55.749Z,0.00
2022-12-15T18:58:55.752Z,0.00
2022-12-15T18:59:55.735Z,0.00
2022-12-15T19:00:55.794Z,0.00
2022-12-15T19:01:55.899Z,0.00
2022-12-15T19:02:55.886Z,0.00
2022-12-15T19:03:55.695Z,0.00
2022-12-15T19:04:55.682Z,0.00
2022-12-15T19:05:55.672Z,0.00
2022-12-15T19:06:55.700Z,0.00
2022-12-15T19:07:55.649Z,0.00
2022-12-15T19:08:55.643Z,0.00
2022-12-15T19:09:55.625Z,0.00
2022-12-15T19:10:55.619Z,0.00
2022-12-15T19:11:55.598Z,0.00
2022-12-15T19:12:58.731Z,0.00
2022-12-15T19:13:55.585Z,0.00
2022-12-15T19:14:55.582Z,0.00
2022-12-15T19:15:55.680Z,0.00
2022-12-15T19:16:55.623Z,0.00
2022-12-15T19:17:55.543Z,0.00
2022-12-15T19:18:55.518Z,0.00
2022-12-15T19:19:55.502Z,0.00
2022-12-15T19:20:55.505Z,0.00
2022-12-15T19:21:55.480Z,0.00
2022-12-15T19:22:55.501Z,0.00
2022-12-15T19:23:55.454Z,0.00
2022-12-15T19:24:55.455Z,0.00
2022-12-15T19:25:55.451Z,0.00
2022-12-15T19:26:55.425Z,0.00
2022-12-15T19:27:55.455Z,0.00
2022-12-15T19:28:55.422Z,0.00
2022-12-15T19:29:55.404Z,0.00
2022-12-15T19:30:55.404Z,0.00
2022-12-15T19:31:55.510Z,0.00
2022-12-15T19:32:55.369Z,0.00
2022-12-15T19:33:55.372Z,0.00
2022-12-15T19:34:55.348Z,0.00
2022-12-15T19:35:55.338Z,0.00
2022-12-15T19:36:55.314Z,0.00
2022-12-15T19:37:55.474Z,0.00
2022-12-15T19:38:55.314Z,0.00
2022-12-15T19:39:55.295Z,0.00
2022-12-15T19:40:55.295Z,0.00
2022-12-15T19:41:55.274Z,0.00
2022-12-15T19:42:55.478Z,0.00
2022-12-15T19:43:55.231Z,0.00
2022-12-15T19:44:55.229Z,0.00
2022-12-15T19:45:55.258Z,0.00
2022-12-15T19:46:55.217Z,0.00
2022-12-15T19:47:55.202Z,0.00
2022-12-15T19:48:55.194Z,0.00
2022-12-15T19:49:55.199Z,0.00
2022-12-15T19:50:55.180Z,0.00
2022-12-15T19:51:55.156Z,0.00
2022-12-15T19:52:55.143Z,0.00
2022-12-15T19:53:55.141Z,0.00
2022-12-15T19:54:55.146Z,0.00
2022-12-15T19:55:55.110Z,0.00
2022-12-15T19:56:55.120Z,0.00
2022-12-15T19:57:55.084Z,0.00
2022-12-15T19:58:55.066Z,0.00
2022-12-15T19:59:55.074Z,0.00
2022-12-15T20:00:55.090Z,0.00
2022-12-15T20:01:55.319Z,0.00
2022-12-15T20:02:55.274Z,0.00
2022-12-15T20:03:55.009Z,0.00
2022-12-15T20:04:54.994Z,0.00
2022-12-15T20:05:55.010Z,0.00
2022-12-15T20:06:55.004Z,0.00
2022-12-15T20:07:55.028Z,0.00
2022-12-15T20:08:54.973Z,0.00
2022-12-15T20:09:54.957Z,0.00
2022-12-15T20:10:54.947Z,0.00
2022-12-15T20:11:54.932Z,0.00
2022-12-15T20:12:54.908Z,0.00
2022-12-15T20:13:54.928Z,0.00
2022-12-15T20:14:54.880Z,0.00
2022-12-15T20:15:54.910Z,0.00
2022-12-15T20:16:54.929Z,0.00
2022-12-15T20:17:54.868Z,0.00
2022-12-15T20:18:54.845Z,0.00
2022-12-15T20:19:54.849Z,0.00
2022-12-15T20:20:54.826Z,0.00
2022-12-15T20:21:54.828Z,0.00
2022-12-15T20:22:54.805Z,0.00
2022-12-15T20:23:54.794Z,0.00
2022-12-15T20:24:54.768Z,0.00
2022-12-15T20:25:54.791Z,0.00
2022-12-15T20:26:54.774Z,0.00
2022-12-15T20:27:54.751Z,0.00
2022-12-15T20:28:54.723Z,0.00
2022-12-15T20:29:54.910Z,0.00
2022-12-15T20:30:54.727Z,0.00
2022-12-15T20:31:54.793Z,0.00
2022-12-15T20:32:54.688Z,0.00
2022-12-15T20:33:54.673Z,0.00
2022-12-15T20:34:54.658Z,0.00
2022-12-15T20:35:55.066Z,0.00
2022-12-15T20:36:54.635Z,0.00
2022-12-15T20:37:54.642Z,0.00
2022-12-15T20:38:54.638Z,0.00
2022-12-15T20:39:57.640Z,0.00
2022-12-15T20:40:54.609Z,0.00
2022-12-15T20:41:54.617Z,0.00
2022-12-15T20:42:54.723Z,0.00
2022-12-15T20:43:55.270Z,0.00
2022-12-15T20:44:54.608Z,0.00
2022-12-15T20:45:58.027Z,0.00
2022-12-15T20:46:54.540Z,0.00
2022-12-15T20:47:54.544Z,0.00
2022-12-15T20:48:54.525Z,0.00
2022-12-15T20:49:54.498Z,0.00
2022-12-15T20:50:54.512Z,0.00
2022-12-15T20:51:54.472Z,0.00